Time;durP1;ratioP1;P1;durP2;ratioP2;P2;SDS_P1;SDS_P2;PMS_P1;PMS_P2;Temp;Humidity;BMP_temperature;BMP_pressure;BME280_temperature;BME280_humidity;BME280_pressure;Samples;Min_cycle;Max_cycle;Signal;HPM_P1;HPM_P2
2024/02/08 05:01:45;;;;;;;1.40;1.30;;;1.00;97.30;;;;;;5529485;23;20517;-90
2024/02/08 05:04:10;;;;;;;1.10;1.00;;;1.00;97.30;;;;;;5014175;28;20954;-89
2024/02/08 05:06:36;;;;;;;2.23;2.03;;;1.10;97.30;;;;;;5018927;28;20177;-88
2024/02/08 05:09:01;;;;;;;1.30;1.20;;;1.10;97.30;;;;;;5019031;28;20177;-89
2024/02/08 05:11:30;;;;;;;1.93;1.80;;;1.10;97.30;;;;;;5019320;28;20192;-90
2024/02/08 05:14:03;;;;;;;3.23;3.00;;;1.20;97.30;;;;;;5019227;28;20203;-88
2024/02/08 05:16:36;;;;;;;3.50;2.40;;;1.10;97.30;;;;;;5015090;28;20933;-88
2024/02/08 05:19:03;;;;;;;1.63;1.53;;;1.10;97.30;;;;;;5018716;28;20489;-90
2024/02/08 05:21:31;;;;;;;3.70;1.57;;;1.10;97.30;;;;;;5026788;28;20469;-89
2024/02/08 05:23:58;;;;;;;1.93;1.80;;;1.10;97.30;;;;;;5037834;28;20418;-91
2024/02/08 05:26:25;;;;;;;2.50;1.87;;;1.10;97.30;;;;;;5018396;28;20415;-89
2024/02/08 05:28:58;;;;;;;2.03;1.87;;;1.10;97.30;;;;;;5018066;28;20453;-88
2024/02/08 05:31:27;;;;;;;1.10;1.00;;;1.10;97.30;;;;;;5036047;28;20439;-89
2024/02/08 05:33:56;;;;;;;1.10;1.00;;;1.10;97.30;;;;;;5017617;28;20931;-90
2024/02/08 05:36:22;;;;;;;1.23;1.13;;;1.10;97.30;;;;;;5018651;28;20419;-89
2024/02/08 05:38:52;;;;;;;2.20;1.50;;;1.10;97.30;;;;;;5018203;28;20494;-90
2024/02/08 05:41:17;;;;;;;3.80;2.20;;;1.10;97.30;;;;;;5036180;28;20486;-89
2024/02/08 05:43:47;;;;;;;1.30;1.20;;;1.10;97.30;;;;;;5026395;28;20502;-88
2024/02/08 05:46:21;;;;;;;1.37;1.27;;;1.10;97.30;;;;;;5017918;28;20244;-89
2024/02/08 05:48:53;;;;;;;2.17;2.00;;;1.10;97.30;;;;;;5017828;28;20469;-90
2024/02/08 05:51:26;;;;;;;4.30;1.63;;;1.10;97.30;;;;;;5009970;28;20823;-91
2024/02/08 05:53:51;;;;;;;1.80;1.70;;;1.10;97.30;;;;;;5018285;28;20540;-90
2024/02/08 05:56:26;;;;;;;3.33;2.10;;;1.20;97.30;;;;;;5018279;28;20423;-88
2024/02/08 05:58:52;;;;;;;2.03;1.53;;;1.20;97.30;;;;;;5017755;28;20179;-86
2024/02/08 06:01:23;;;;;;;1.40;1.30;;;1.20;97.30;;;;;;5017159;28;21043;-88
2024/02/08 06:03:49;;;;;;;6.13;2.50;;;1.20;97.30;;;;;;5017471;28;20419;-89
2024/02/08 06:06:34;;;;;;;24.17;1.97;;;1.20;97.30;;;;;;5025572;28;20434;-90
2024/02/08 06:09:08;;;;;;;1.77;1.67;;;1.20;97.30;;;;;;5017008;28;20185;-86
2024/02/08 06:11:37;;;;;;;3.13;1.93;;;1.10;97.30;;;;;;5017258;28;20443;-89
2024/02/08 06:14:12;;;;;;;7.90;1.67;;;1.10;97.30;;;;;;5018517;28;20447;-90
2024/02/08 06:16:47;;;;;;;5.53;3.43;;;1.20;97.30;;;;;;5022802;28;20438;-89
2024/02/08 06:19:15;;;;;;;1.20;1.10;;;1.20;97.30;;;;;;5019979;28;20418;-90
2024/02/08 06:21:41;;;;;;;1.30;1.20;;;1.30;97.30;;;;;;5022237;28;20473;-90
2024/02/08 06:26:55;;;;;;;2.67;1.93;;;1.30;97.30;;;;;;5035037;28;20414;-89
2024/02/08 06:29:26;;;;;;;2.03;1.50;;;1.30;97.30;;;;;;5017198;28;20423;-91
2024/02/08 06:32:02;;;;;;;1.47;1.37;;;1.30;97.30;;;;;;5017468;28;20472;-90
2024/02/08 06:34:42;;;;;;;2.60;2.40;;;1.30;97.30;;;;;;5017124;28;20453;-89
2024/02/08 06:37:28;;;;;;;1.50;1.50;;;1.30;97.30;;;;;;5036580;28;20454;-89
2024/02/08 06:39:56;;;;;;;1.50;1.40;;;1.30;97.30;;;;;;5020230;28;20418;-90
2024/02/08 06:45:25;;;;;;;2.83;2.07;;;1.30;97.30;;;;;;5033836;28;20481;-91
2024/02/08 06:48:26;;;;;;;5.60;2.90;;;1.30;97.30;;;;;;5015498;28;20776;-90
2024/02/08 07:37:25;;;;;;;1.60;1.50;;;1.70;97.30;;;;;;5039736;28;20938;-89
2024/02/08 07:39:54;;;;;;;2.07;1.93;;;1.70;97.30;;;;;;5025533;28;20415;-90
2024/02/08 07:42:29;;;;;;;5.27;1.90;;;1.80;97.30;;;;;;5004894;28;20485;-89
2024/02/08 07:45:04;;;;;;;1.73;1.63;;;1.80;97.30;;;;;;5015734;28;20944;-90
2024/02/08 07:47:34;;;;;;;2.53;1.80;;;1.90;97.30;;;;;;5026283;28;20422;-89
2024/02/08 07:50:09;;;;;;;1.80;1.70;;;1.90;97.30;;;;;;5021911;28;20506;-90
2024/02/08 07:52:55;;;;;;;3.10;2.20;;;1.90;97.30;;;;;;5015937;28;20450;-89
2024/02/08 07:55:46;;;;;;;1.67;1.57;;;2.00;97.30;;;;;;5016626;28;20430;-87
2024/02/08 07:58:10;;;;;;;6.43;3.00;;;2.00;97.30;;;;;;5034665;28;20504;-90
2024/02/08 08:03:09;;;;;;;6.20;2.30;;;2.10;97.30;;;;;;5037993;28;20521;-90
2024/02/08 08:05:44;;;;;;;1.40;1.30;;;2.10;97.30;;;;;;5021318;28;20473;-89
2024/02/08 08:08:27;;;;;;;2.97;2.13;;;2.20;97.30;;;;;;5014873;28;20415;-90
2024/02/08 08:11:02;;;;;;;2.47;2.07;;;2.20;97.30;;;;;;5011125;28;20611;-89
2024/02/08 08:19:10;;;;;;;16.53;2.93;;;2.40;97.30;;;;;;5029026;28;20454;-89
2024/02/08 08:22:03;;;;;;;1.87;1.77;;;2.40;97.30;;;;;;5015043;28;20470;-89
2024/02/08 08:24:29;;;;;;;3.23;1.93;;;2.40;97.30;;;;;;5020997;28;20565;-91
2024/02/08 08:27:06;;;;;;;2.00;1.73;;;2.50;97.30;;;;;;5014696;28;20419;-89
2024/02/08 08:29:42;;;;;;;4.23;2.20;;;2.60;97.30;;;;;;5019709;28;20418;-90
2024/02/08 08:37:44;;;;;;;3.13;2.50;;;2.70;97.30;;;;;;4991426;28;20498;-92
2024/02/08 08:42:58;;;;;;;1.97;1.87;;;2.80;97.30;;;;;;5039158;28;20863;-91
2024/02/08 08:45:23;;;;;;;3.63;3.50;;;2.90;97.30;;;;;;5004300;28;20450;-91
2024/02/08 08:47:53;;;;;;;5.27;1.97;;;3.00;97.30;;;;;;5028986;28;20186;-89
2024/02/08 08:50:19;;;;;;;10.13;3.13;;;3.00;97.30;;;;;;5025843;28;20233;-89
2024/02/08 08:52:49;;;;;;;5.33;2.47;;;3.00;97.30;;;;;;5025330;28;20427;-88
2024/02/08 08:55:19;;;;;;;9.30;5.70;;;3.00;97.30;;;;;;5018495;28;20427;-91
2024/02/08 08:57:47;;;;;;;3.53;2.00;;;3.00;97.30;;;;;;5012866;28;20443;-89
2024/02/08 09:00:20;;;;;;;3.23;1.83;;;3.00;97.30;;;;;;5027293;28;20435;-89
2024/02/08 09:02:50;;;;;;;2.80;2.40;;;3.10;97.30;;;;;;5012885;28;20485;-89
2024/02/08 09:05:30;;;;;;;1.73;1.57;;;3.10;97.30;;;;;;5025102;28;20497;-89
2024/02/08 09:07:59;;;;;;;4.70;2.67;;;3.10;97.30;;;;;;5014738;28;20419;-89
2024/02/08 09:10:25;;;;;;;4.90;2.47;;;3.10;97.30;;;;;;5025074;28;20426;-90
2024/02/08 09:12:59;;;;;;;5.70;4.00;;;3.10;97.30;;;;;;5022762;28;20438;-91
2024/02/08 09:15:28;;;;;;;2.70;1.97;;;3.20;97.30;;;;;;5028767;28;20745;-88
2024/02/08 09:17:58;;;;;;;4.13;2.27;;;3.20;97.30;;;;;;5020086;28;20446;-91
2024/02/08 09:20:28;;;;;;;4.13;3.90;;;3.30;97.30;;;;;;5019844;28;20552;-88
2024/02/08 09:22:55;;;;;;;2.70;2.07;;;3.30;97.30;;;;;;5024952;28;20757;-88
2024/02/08 09:25:21;;;;;;;2.47;2.20;;;3.30;97.30;;;;;;5023556;28;20947;-88
2024/02/08 09:27:53;;;;;;;1.60;1.50;;;3.30;97.30;;;;;;5020516;28;20431;-89
2024/02/08 09:30:37;;;;;;;1.80;1.70;;;3.40;97.30;;;;;;5051393;28;20429;-89
2024/02/08 09:33:13;;;;;;;1.23;1.13;;;3.40;97.30;;;;;;5030927;28;20444;-89
2024/02/08 09:35:41;;;;;;;2.23;2.00;;;3.50;97.30;;;;;;5027542;28;20422;-91
2024/02/08 09:38:07;;;;;;;3.27;3.13;;;3.50;97.30;;;;;;5021060;28;20443;-91
2024/02/08 09:40:45;;;;;;;3.57;3.37;;;3.50;97.30;;;;;;5025629;28;20426;-91
2024/02/08 09:43:17;;;;;;;3.00;1.73;;;3.60;97.30;;;;;;5026090;28;20422;-91
2024/02/08 09:45:44;;;;;;;1.50;1.43;;;3.70;97.30;;;;;;5040885;28;20418;-88
2024/02/08 09:48:15;;;;;;;2.50;1.83;;;3.80;97.30;;;;;;5028231;28;20845;-88
2024/02/08 09:50:50;;;;;;;3.43;2.77;;;3.80;97.30;;;;;;5027662;28;20461;-87
2024/02/08 09:53:27;;;;;;;1.57;1.53;;;3.90;97.30;;;;;;5027238;28;20944;-90
2024/02/08 09:55:57;;;;;;;1.33;1.20;;;3.90;97.30;;;;;;5036519;28;20419;-89
2024/02/08 09:58:33;;;;;;;1.67;1.57;;;3.90;97.30;;;;;;5017703;28;20993;-89
2024/02/08 10:00:59;;;;;;;2.60;1.53;;;4.00;97.30;;;;;;5022832;28;20557;-89
2024/02/08 10:03:32;;;;;;;7.67;2.97;;;4.00;97.30;;;;;;5044255;28;20421;-89
2024/02/08 10:06:22;;;;;;;5.77;1.40;;;4.00;97.30;;;;;;5034832;28;20430;-89
2024/02/08 10:08:54;;;;;;;3.60;2.77;;;4.00;97.30;;;;;;5006958;28;20516;-90
2024/02/08 10:11:36;;;;;;;3.53;1.93;;;4.10;97.30;;;;;;5014779;28;20445;-90
2024/02/08 10:14:02;;;;;;;4.73;4.03;;;4.10;97.30;;;;;;5027357;28;20476;-89
2024/02/08 10:16:47;;;;;;;2.90;2.70;;;4.20;97.30;;;;;;5035254;28;20770;-89
2024/02/08 10:19:27;;;;;;;6.13;1.80;;;4.30;97.30;;;;;;5018054;28;20821;-90
2024/02/08 10:21:57;;;;;;;1.33;1.23;;;4.40;97.30;;;;;;5018314;28;20918;-89
2024/02/08 10:27:19;;;;;;;5.97;3.73;;;4.60;97.30;;;;;;5039149;28;20845;-89
2024/02/08 10:29:46;;;;;;;5.37;2.30;;;4.60;97.30;;;;;;5029741;28;20842;-89
2024/02/08 10:32:14;;;;;;;4.60;4.30;;;4.60;97.30;;;;;;5020315;28;20475;-92
2024/02/08 10:34:43;;;;;;;3.70;3.50;;;4.70;97.30;;;;;;5022713;28;20486;-91
2024/02/08 10:39:59;;;;;;;2.20;2.00;;;4.70;97.30;;;;;;5041217;28;20994;-89
2024/02/08 10:42:29;;;;;;;8.13;2.53;;;4.80;97.30;;;;;;5025667;28;20482;-89
2024/02/08 10:45:05;;;;;;;7.33;2.80;;;4.80;97.30;;;;;;5023712;28;20419;-88
2024/02/08 10:47:39;;;;;;;2.37;2.20;;;4.90;97.30;;;;;;5016182;28;20806;-90
2024/02/08 10:50:19;;;;;;;6.23;2.40;;;4.90;97.30;;;;;;5017064;28;20415;-90
2024/02/08 10:52:49;;;;;;;2.00;1.90;;;5.00;97.30;;;;;;5009294;28;20537;-89
2024/02/08 10:55:18;;;;;;;2.63;2.43;;;5.10;97.30;;;;;;5023025;28;20414;-89
2024/02/08 10:58:21;;;;;;;5.43;2.73;;;5.10;97.30;;;;;;5009143;28;20427;-89
2024/02/08 11:08:32;;;;;;;1.67;1.43;;;5.40;97.30;;;;;;5037799;28;20475;-89
2024/02/08 11:11:09;;;;;;;2.43;2.10;;;5.40;97.30;;;;;;5027809;28;20955;-89
2024/02/08 11:13:42;;;;;;;4.50;2.67;;;5.40;97.30;;;;;;5026181;28;20796;-89
2024/02/08 11:16:21;;;;;;;3.00;2.80;;;5.50;97.30;;;;;;5020206;28;20787;-90
2024/02/08 11:18:51;;;;;;;5.83;3.63;;;5.50;97.30;;;;;;5014591;28;20414;-89
2024/02/08 11:21:24;;;;;;;6.57;3.90;;;5.50;97.30;;;;;;5037329;28;20463;-90
2024/02/08 11:23:51;;;;;;;2.80;2.60;;;5.40;97.30;;;;;;5013503;28;20426;-91
2024/02/08 11:26:19;;;;;;;5.23;3.30;;;5.40;97.30;;;;;;5026940;28;20416;-89
2024/02/08 11:28:44;;;;;;;1.87;1.77;;;5.50;97.30;;;;;;5014808;28;20426;-89
2024/02/08 11:31:16;;;;;;;2.27;2.07;;;5.60;97.30;;;;;;5008886;28;20953;-90
2024/02/08 11:33:42;;;;;;;1.83;1.83;;;5.60;97.30;;;;;;5031657;28;20188;-90
2024/02/08 11:36:21;;;;;;;5.50;3.30;;;5.80;97.30;;;;;;5008212;28;20423;-90
2024/02/08 11:38:53;;;;;;;3.03;2.83;;;5.80;97.30;;;;;;5020314;28;20465;-89
2024/02/08 11:41:25;;;;;;;1.90;1.80;;;5.80;97.30;;;;;;5018789;28;20454;-89
2024/02/08 11:44:02;;;;;;;2.67;2.47;;;5.80;97.30;;;;;;5017064;28;20522;-90
2024/02/08 11:46:45;;;;;;;2.90;1.83;;;5.70;97.30;;;;;;5009437;28;20511;-88
2024/02/08 11:49:31;;;;;;;7.87;4.00;;;5.70;97.30;;;;;;5012089;28;20411;-90
2024/02/08 11:51:57;;;;;;;4.63;3.53;;;5.60;97.30;;;;;;5010367;28;20452;-90
2024/02/08 11:54:28;;;;;;;4.90;3.93;;;5.60;97.30;;;;;;5012783;28;21112;-90
2024/02/08 11:56:56;;;;;;;4.40;2.10;;;5.60;97.30;;;;;;5015981;28;20427;-92
2024/02/08 11:59:24;;;;;;;4.97;4.47;;;5.70;97.30;;;;;;5023419;28;20422;-90
2024/02/08 12:01:51;;;;;;;3.53;1.80;;;5.80;97.30;;;;;;5015149;28;20467;-90
2024/02/08 12:04:17;;;;;;;1.70;1.60;;;5.90;97.30;;;;;;5016167;28;20491;-89
2024/02/08 12:06:46;;;;;;;2.40;1.47;;;5.90;97.30;;;;;;5015129;28;20412;-91
2024/02/08 12:09:22;;;;;;;2.10;1.83;;;5.80;97.30;;;;;;5015518;28;20181;-91
2024/02/08 12:11:49;;;;;;;6.33;2.13;;;5.80;97.30;;;;;;5027582;28;20468;-90
2024/02/08 12:14:16;;;;;;;6.73;3.77;;;5.90;97.30;;;;;;5019719;28;20439;-87
2024/02/08 12:16:46;;;;;;;5.07;4.77;;;6.00;97.30;;;;;;5009536;28;20493;-87
2024/02/08 12:19:16;;;;;;;5.07;3.10;;;6.00;97.30;;;;;;5023821;28;20474;-90
2024/02/08 12:21:42;;;;;;;2.00;1.70;;;6.00;97.30;;;;;;5033844;28;20471;-91
2024/02/08 12:24:15;;;;;;;2.87;2.67;;;6.00;97.30;;;;;;5023834;28;20419;-90
2024/02/08 12:26:42;;;;;;;3.63;1.57;;;6.00;97.30;;;;;;5014891;28;20419;-90
2024/02/08 12:29:16;;;;;;;1.20;1.10;;;5.90;97.30;;;;;;5023355;28;20418;-89
2024/02/08 12:31:45;;;;;;;5.43;2.30;;;5.90;97.30;;;;;;5014786;28;20443;-90
2024/02/08 12:34:13;;;;;;;7.73;2.07;;;5.90;97.30;;;;;;5015964;28;20523;-90
2024/02/08 12:36:44;;;;;;;3.43;2.20;;;5.80;97.30;;;;;;5015079;28;21193;-88
2024/02/08 12:39:19;;;;;;;2.63;2.13;;;5.80;97.30;;;;;;5016077;28;20498;-90
2024/02/08 12:41:50;;;;;;;1.80;1.77;;;5.80;97.30;;;;;;5014846;28;20485;-89
2024/02/08 12:44:20;;;;;;;3.00;2.80;;;5.80;97.30;;;;;;5016294;28;20419;-86
2024/02/08 12:46:49;;;;;;;3.00;1.70;;;5.80;97.30;;;;;;5016178;28;21051;-90
2024/02/08 12:49:15;;;;;;;2.43;2.23;;;5.70;97.30;;;;;;5015161;28;20407;-89
2024/02/08 12:51:41;;;;;;;4.40;2.37;;;5.70;97.30;;;;;;5022584;28;20431;-89
2024/02/08 12:54:07;;;;;;;2.93;2.00;;;5.60;97.30;;;;;;5023473;28;20438;-89
2024/02/08 12:56:36;;;;;;;1.60;1.50;;;5.70;97.30;;;;;;5023534;28;20237;-87
2024/02/08 12:59:03;;;;;;;4.43;4.10;;;5.70;97.30;;;;;;5015751;28;20726;-88
2024/02/08 13:01:47;;;;;;;1.77;1.67;;;5.80;97.30;;;;;;5014246;28;20481;-89
2024/02/08 13:04:20;;;;;;;2.07;1.93;;;5.80;97.30;;;;;;5014671;28;20422;-90
2024/02/08 13:06:48;;;;;;;6.40;3.63;;;5.80;97.30;;;;;;5014792;28;20513;-90
2024/02/08 13:09:25;;;;;;;2.83;2.17;;;5.90;97.30;;;;;;5021442;28;20407;-89
2024/02/08 13:12:14;;;;;;;1.50;1.40;;;6.00;97.30;;;;;;5014113;28;20450;-89
2024/02/08 13:14:48;;;;;;;4.10;1.80;;;6.00;97.30;;;;;;5014074;28;20453;-89
2024/02/08 13:17:21;;;;;;;3.10;2.90;;;5.90;97.30;;;;;;5014357;28;20425;-89
2024/02/08 13:19:48;;;;;;;1.73;1.67;;;5.80;97.30;;;;;;5034832;28;20423;-90
2024/02/08 13:22:14;;;;;;;2.40;2.20;;;5.80;97.30;;;;;;5012576;28;20645;-89
2024/02/08 13:24:40;;;;;;;1.77;1.67;;;5.80;97.30;;;;;;5032089;28;20967;-90
2024/02/08 13:27:05;;;;;;;2.63;1.73;;;5.80;97.30;;;;;;5024415;28;20427;-89
2024/02/08 13:29:31;;;;;;;2.20;2.00;;;5.70;97.30;;;;;;5018695;28;20259;-89
2024/02/08 13:31:57;;;;;;;5.50;2.27;;;5.70;97.30;;;;;;5018424;28;20630;-89
2024/02/08 13:34:23;;;;;;;3.13;2.93;;;5.70;97.30;;;;;;5026660;28;20210;-91
2024/02/08 13:36:48;;;;;;;6.00;2.40;;;5.70;97.30;;;;;;5035381;28;20510;-90
2024/02/08 13:39:14;;;;;;;1.67;1.57;;;5.70;97.30;;;;;;5018945;28;20187;-89
2024/02/08 13:41:46;;;;;;;2.10;1.97;;;5.70;97.30;;;;;;5018399;28;20598;-89
2024/02/08 13:44:14;;;;;;;2.87;2.67;;;5.70;97.30;;;;;;5017710;28;20188;-90
2024/02/08 13:46:41;;;;;;;18.07;2.57;;;5.60;97.30;;;;;;5017258;28;20495;-89
2024/02/08 13:49:07;;;;;;;3.90;2.93;;;5.60;97.30;;;;;;5018933;28;20415;-89
2024/02/08 13:51:33;;;;;;;2.27;2.07;;;5.60;97.30;;;;;;5031766;28;20723;-88
2024/02/08 13:53:59;;;;;;;1.10;1.00;;;5.60;97.30;;;;;;5019151;28;20322;-89
2024/02/08 13:56:25;;;;;;;5.20;1.80;;;5.50;97.30;;;;;;5020947;28;20992;-89
2024/02/08 13:58:52;;;;;;;1.90;1.80;;;5.50;97.30;;;;;;5023175;28;20662;-88
2024/02/08 14:01:25;;;;;;;1.93;1.83;;;5.50;97.30;;;;;;5036031;28;20594;-89
2024/02/08 14:03:56;;;;;;;1.57;1.47;;;5.50;97.30;;;;;;5017770;28;20411;-89
2024/02/08 14:06:22;;;;;;;2.47;2.27;;;5.50;97.30;;;;;;5012798;28;20428;-86
2024/02/08 14:08:53;;;;;;;2.27;2.13;;;5.50;97.30;;;;;;5010119;28;20426;-89
2024/02/08 14:11:25;;;;;;;2.63;1.93;;;5.50;97.30;;;;;;5017457;28;20442;-88
2024/02/08 14:13:51;;;;;;;1.73;1.63;;;5.50;97.30;;;;;;5018708;28;20423;-90
2024/02/08 14:16:19;;;;;;;1.13;1.03;;;5.50;97.30;;;;;;5037049;28;20944;-88
2024/02/08 14:18:48;;;;;;;3.20;3.00;;;5.40;97.30;;;;;;5014790;28;20442;-88
2024/02/08 14:21:24;;;;;;;3.00;2.00;;;5.40;97.30;;;;;;5020832;28;20467;-87
2024/02/08 14:23:50;;;;;;;2.43;2.23;;;5.40;97.30;;;;;;5019688;28;20465;-89
2024/02/08 14:28:45;;;;;;;1.73;1.63;;;5.40;97.30;;;;;;5029023;28;20426;-89
2024/02/08 14:31:11;;;;;;;3.17;2.43;;;5.40;97.30;;;;;;5015801;28;20207;-88
2024/02/08 14:33:41;;;;;;;1.33;1.23;;;5.40;97.30;;;;;;5018396;28;20415;-88
2024/02/08 14:36:08;;;;;;;1.80;1.73;;;5.30;97.30;;;;;;5039547;28;20433;-88
2024/02/08 14:38:41;;;;;;;2.20;1.83;;;5.30;97.30;;;;;;5035473;28;20708;-88
2024/02/08 14:41:19;;;;;;;2.30;2.10;;;5.20;97.30;;;;;;5034836;28;20454;-88
2024/02/08 14:43:46;;;;;;;1.83;1.80;;;5.20;97.30;;;;;;5014218;28;20501;-88
2024/02/08 14:46:12;;;;;;;3.00;2.80;;;5.10;97.30;;;;;;5012075;28;20426;-89
2024/02/08 14:48:37;;;;;;;6.30;2.70;;;5.10;97.30;;;;;;5018258;28;20423;-89
2024/02/08 14:53:49;;;;;;;3.73;3.57;;;5.10;97.30;;;;;;5030455;28;20202;-89
2024/02/08 14:56:18;;;;;;;8.50;1.70;;;5.00;97.30;;;;;;5011530;28;20426;-89
2024/02/08 14:59:09;;;;;;;2.53;2.33;;;5.00;97.30;;;;;;5034560;28;20917;-89
2024/02/08 15:01:39;;;;;;;28.53;2.80;;;4.90;97.30;;;;;;5013870;28;20475;-86
2024/02/08 15:04:21;;;;;;;3.37;2.70;;;4.80;97.30;;;;;;5008352;28;20427;-85
2024/02/08 15:14:36;;;;;;;3.43;3.23;;;4.70;97.30;;;;;;5026339;28;20444;-90
2024/02/08 15:17:10;;;;;;;2.77;2.57;;;4.60;97.30;;;;;;5032587;28;20426;-90
2024/02/08 15:19:45;;;;;;;5.80;2.30;;;4.60;97.30;;;;;;5013796;28;20427;-87
2024/02/08 15:22:18;;;;;;;2.07;1.93;;;4.50;97.30;;;;;;5006552;28;20458;-88
2024/02/08 15:24:47;;;;;;;9.43;3.43;;;4.50;97.30;;;;;;5006588;28;20668;-90
2024/02/08 15:27:18;;;;;;;3.37;2.60;;;4.40;97.30;;;;;;5014070;28;20523;-90
2024/02/08 15:29:51;;;;;;;2.27;2.13;;;4.40;97.30;;;;;;5007936;28;20422;-89
2024/02/08 15:32:17;;;;;;;2.43;2.23;;;4.40;97.30;;;;;;5013774;28;20447;-91
2024/02/08 15:34:58;;;;;;;14.67;2.60;;;4.30;97.30;;;;;;5006898;28;20762;-92
2024/02/08 15:37:31;;;;;;;2.03;1.90;;;4.30;97.30;;;;;;5032347;28;20419;-91
2024/02/08 15:40:09;;;;;;;12.67;3.10;;;4.30;97.30;;;;;;5032340;28;20490;-91
2024/02/08 15:42:39;;;;;;;1.67;1.63;;;4.30;97.30;;;;;;5033403;28;20493;-91
2024/02/08 15:45:10;;;;;;;1.43;1.30;;;4.20;97.30;;;;;;5016314;28;21033;-91
2024/02/08 15:47:42;;;;;;;1.77;1.67;;;4.10;97.30;;;;;;5015394;28;20736;-90
2024/02/08 15:50:15;;;;;;;5.10;2.20;;;4.10;97.30;;;;;;5017325;28;20469;-90
2024/02/08 15:52:42;;;;;;;5.13;2.00;;;4.10;97.30;;;;;;5018901;28;20443;-91
2024/02/08 15:55:17;;;;;;;1.53;1.43;;;4.00;97.30;;;;;;5019245;28;20433;-95
2024/02/08 15:57:53;;;;;;;1.60;1.50;;;4.00;97.30;;;;;;5018443;28;20429;-91
2024/02/08 16:01:01;;;;;;;3.43;1.90;;;3.90;97.30;;;;;;5018656;28;20466;-91
2024/02/08 16:03:25;;;;;;;4.80;2.17;;;3.90;97.30;;;;;;5018082;28;20427;-91
2024/02/08 16:05:55;;;;;;;1.13;1.03;;;3.90;97.30;;;;;;5019315;28;20416;-91
2024/02/08 16:08:32;;;;;;;2.20;2.00;;;3.90;97.30;;;;;;4999939;28;20808;-89
2024/02/08 16:11:08;;;;;;;3.97;1.70;;;3.80;97.30;;;;;;4990490;28;20818;-90
2024/02/08 16:13:42;;;;;;;1.10;1.00;;;3.70;97.30;;;;;;4983257;28;20428;-90
2024/02/08 16:16:08;;;;;;;3.50;3.30;;;3.60;97.30;;;;;;4985895;28;20802;-91
2024/02/08 16:18:36;;;;;;;2.03;1.37;;;3.60;97.30;;;;;;4992419;28;20415;-90
2024/02/08 16:21:05;;;;;;;1.23;1.20;;;3.60;97.30;;;;;;4991072;28;20198;-90
2024/02/08 16:23:46;;;;;;;2.03;1.90;;;3.60;97.30;;;;;;4985568;28;20494;-91
2024/02/08 16:26:12;;;;;;;1.57;1.47;;;3.60;97.30;;;;;;5000689;28;20420;-91
2024/02/08 16:28:45;;;;;;;2.40;2.20;;;3.60;97.30;;;;;;5005118;28;20416;-90
2024/02/08 16:31:24;;;;;;;1.20;1.10;;;3.50;97.30;;;;;;4985006;28;20449;-90
2024/02/08 16:39:29;;;;;;;2.27;1.63;;;3.50;97.30;;;;;;5013048;28;20423;-91
2024/02/08 16:41:59;;;;;;;1.30;1.20;;;3.50;97.30;;;;;;5009167;28;20462;-91
2024/02/08 16:47:28;;;;;;;4.13;3.53;;;3.50;97.30;;;;;;5017394;28;20406;-91
2024/02/08 16:49:55;;;;;;;1.97;1.83;;;3.50;97.30;;;;;;4993940;28;20411;-90
2024/02/08 16:52:28;;;;;;;7.57;2.13;;;3.50;97.30;;;;;;5000395;28;20446;-90
2024/02/08 16:55:00;;;;;;;4.77;1.83;;;3.40;97.30;;;;;;4997734;28;20458;-91
2024/02/08 16:57:31;;;;;;;2.43;2.23;;;3.40;97.30;;;;;;4997785;28;20929;-91
2024/02/08 17:00:28;;;;;;;2.07;1.67;;;3.40;97.30;;;;;;5007637;28;20875;-92
2024/02/08 17:03:00;;;;;;;1.67;1.57;;;3.50;97.30;;;;;;5010679;28;20562;-91
2024/02/08 17:05:38;;;;;;;3.70;1.97;;;3.50;97.30;;;;;;5001484;28;20416;-91
2024/02/08 17:08:07;;;;;;;8.43;2.73;;;3.50;97.30;;;;;;5006068;28;20435;-91
2024/02/08 17:10:43;;;;;;;2.40;2.20;;;3.50;97.30;;;;;;5011390;28;20661;-91
2024/02/08 17:13:13;;;;;;;3.03;2.80;;;3.40;97.30;;;;;;5004127;28;20422;-92
2024/02/08 17:18:33;;;;;;;1.57;1.47;;;3.40;97.30;;;;;;5008266;28;20410;-93
2024/02/08 17:21:15;;;;;;;1.30;1.20;;;3.30;97.30;;;;;;5003623;28;20460;-92
2024/02/08 17:23:53;;;;;;;4.07;3.10;;;3.30;97.30;;;;;;5009726;28;20825;-92
2024/02/08 17:26:37;;;;;;;17.57;2.57;;;3.30;97.30;;;;;;5005131;28;20519;-94
2024/02/08 17:29:07;;;;;;;1.97;1.83;;;3.20;97.30;;;;;;5014486;28;20408;-92
2024/02/08 17:31:42;;;;;;;1.40;1.30;;;3.20;97.30;;;;;;5005507;28;20448;-91
2024/02/08 17:34:13;;;;;;;2.60;1.77;;;3.20;97.30;;;;;;5006679;28;20431;-91
2024/02/08 17:36:45;;;;;;;4.87;2.77;;;3.20;97.30;;;;;;5003035;28;20409;-92
2024/02/08 17:42:07;;;;;;;2.60;2.40;;;3.10;97.30;;;;;;5004673;28;20537;-91
2024/02/08 17:44:37;;;;;;;2.40;2.20;;;3.10;97.30;;;;;;5007239;28;20428;-93
2024/02/08 17:47:13;;;;;;;1.07;1.00;;;3.00;97.30;;;;;;5009042;28;20412;-91
2024/02/08 17:49:39;;;;;;;9.87;3.87;;;3.00;97.30;;;;;;5003653;28;20934;-93
2024/02/08 17:52:06;;;;;;;3.60;1.33;;;3.00;97.30;;;;;;5014404;28;20462;-92
2024/02/08 17:54:44;;;;;;;2.10;1.47;;;2.90;97.30;;;;;;5016917;28;20254;-94
2024/02/08 17:57:22;;;;;;;3.70;1.20;;;2.90;97.30;;;;;;5021681;28;20434;-93
2024/02/08 17:59:59;;;;;;;1.50;1.40;;;2.90;97.30;;;;;;5022318;28;20420;-92
2024/02/08 18:02:28;;;;;;;1.93;1.83;;;2.90;97.30;;;;;;5017019;28;20481;-92
2024/02/08 18:04:54;;;;;;;2.60;2.27;;;2.90;97.30;;;;;;5021224;28;20489;-92
2024/02/08 18:07:20;;;;;;;2.60;1.67;;;2.90;97.30;;;;;;5006675;28;20428;-92
2024/02/08 18:09:54;;;;;;;3.17;2.47;;;2.90;97.30;;;;;;5034998;28;20177;-91
2024/02/08 18:12:21;;;;;;;5.03;2.30;;;2.80;97.30;;;;;;5016461;28;20439;-94
2024/02/08 18:14:50;;;;;;;1.53;1.43;;;2.80;97.30;;;;;;5009136;28;20865;-92
2024/02/08 18:17:26;;;;;;;2.00;1.50;;;2.80;97.30;;;;;;5009742;28;20416;-91
2024/02/08 18:19:52;;;;;;;5.37;2.20;;;2.80;97.30;;;;;;5013229;28;20431;-91
2024/02/08 18:22:28;;;;;;;2.27;2.10;;;2.80;97.30;;;;;;5010305;28;21007;-92
2024/02/08 18:24:57;;;;;;;1.30;1.20;;;2.80;97.30;;;;;;5017518;28;20446;-91
2024/02/08 18:27:27;;;;;;;2.70;1.37;;;2.80;97.30;;;;;;5018521;28;20442;-92
2024/02/08 18:29:53;;;;;;;6.20;2.30;;;2.80;97.30;;;;;;5021202;28;20415;-92
2024/02/08 18:32:19;;;;;;;1.20;1.10;;;2.80;97.30;;;;;;5021113;28;20536;-92
2024/02/08 18:34:55;;;;;;;3.23;3.00;;;2.90;97.30;;;;;;5018544;28;20180;-92
2024/02/08 18:37:24;;;;;;;2.03;1.93;;;2.80;97.30;;;;;;5018448;28;20270;-91
2024/02/08 18:40:06;;;;;;;2.00;1.90;;;2.90;97.30;;;;;;5019188;28;20427;-92
2024/02/08 18:42:32;;;;;;;1.70;1.60;;;2.90;97.30;;;;;;5021845;28;20462;-92
2024/02/08 18:45:06;;;;;;;2.60;2.40;;;2.90;97.30;;;;;;5023946;28;20423;-93
2024/02/08 18:47:35;;;;;;;1.63;1.60;;;2.90;97.30;;;;;;5037676;28;20168;-94
2024/02/08 18:50:06;;;;;;;2.00;1.87;;;2.80;97.30;;;;;;5037543;28;20442;-92
2024/02/08 18:52:33;;;;;;;1.80;1.63;;;2.90;97.30;;;;;;5026026;28;20534;-90
2024/02/08 18:54:59;;;;;;;1.87;1.60;;;2.90;97.30;;;;;;5029631;28;20785;-91
2024/02/08 18:57:25;;;;;;;4.77;2.60;;;2.90;97.30;;;;;;5021949;28;20423;-91
2024/02/08 18:59:51;;;;;;;5.50;3.20;;;2.90;97.30;;;;;;5023380;28;20459;-92
2024/02/08 19:02:24;;;;;;;7.60;2.20;;;2.90;97.30;;;;;;5033560;28;20319;-92
2024/02/08 19:04:50;;;;;;;3.70;3.50;;;2.90;97.30;;;;;;5034510;28;20419;-91
2024/02/08 19:07:18;;;;;;;2.40;1.80;;;2.90;97.30;;;;;;5000589;28;20776;-90
2024/02/08 19:09:49;;;;;;;3.63;2.63;;;2.90;97.30;;;;;;5009001;28;20416;-90
2024/02/08 19:12:17;;;;;;;6.53;2.23;;;2.90;97.30;;;;;;5024562;28;20439;-91
2024/02/08 19:14:43;;;;;;;2.63;2.43;;;2.90;97.30;;;;;;5014190;28;20434;-91
2024/02/08 19:17:09;;;;;;;2.40;1.90;;;2.90;97.30;;;;;;5023547;28;20845;-91
2024/02/08 19:19:35;;;;;;;2.10;2.00;;;2.90;97.30;;;;;;5012064;28;20470;-91
2024/02/08 19:22:04;;;;;;;5.70;3.10;;;2.90;97.30;;;;;;5013292;28;20618;-92
2024/02/08 19:24:30;;;;;;;5.23;4.40;;;2.80;97.30;;;;;;5013866;28;20188;-91
2024/02/08 19:26:58;;;;;;;3.80;2.27;;;2.80;97.30;;;;;;5013802;28;20477;-91
2024/02/08 19:29:25;;;;;;;3.53;2.33;;;2.80;97.30;;;;;;5010094;28;20446;-90
2024/02/08 19:31:52;;;;;;;2.70;2.50;;;2.80;97.30;;;;;;5012601;28;20473;-91
2024/02/08 19:34:18;;;;;;;1.63;1.53;;;2.80;97.30;;;;;;5000915;28;20427;-92
2024/02/08 19:36:54;;;;;;;1.50;1.40;;;2.80;97.30;;;;;;5014233;28;20431;-91
2024/02/08 19:39:33;;;;;;;2.10;1.90;;;2.80;97.30;;;;;;5004846;28;20456;-91
2024/02/08 19:41:59;;;;;;;6.03;2.50;;;2.80;97.30;;;;;;5028231;28;20562;-90
2024/02/08 19:44:25;;;;;;;3.57;3.37;;;2.80;97.30;;;;;;5014290;28;20945;-93
2024/02/08 19:47:03;;;;;;;1.47;1.40;;;2.70;97.30;;;;;;5009482;28;20424;-91
2024/02/08 19:49:30;;;;;;;1.30;1.20;;;2.70;97.30;;;;;;5003022;28;20192;-92
2024/02/08 19:51:59;;;;;;;2.30;2.10;;;2.70;97.30;;;;;;5016064;28;20443;-94
2024/02/08 19:54:38;;;;;;;1.57;1.47;;;2.70;97.30;;;;;;5017321;28;20450;-93
2024/02/08 19:57:12;;;;;;;2.20;2.03;;;2.70;97.30;;;;;;5039477;28;20478;-93
2024/02/08 19:59:42;;;;;;;1.60;1.50;;;2.60;97.30;;;;;;5022836;28;20423;-93
2024/02/08 20:02:23;;;;;;;1.57;1.47;;;2.70;97.30;;;;;;5021618;28;20476;-93
2024/02/08 20:04:58;;;;;;;2.50;2.30;;;2.60;97.30;;;;;;5020792;28;20469;-92
2024/02/08 20:07:30;;;;;;;2.07;1.93;;;2.60;97.30;;;;;;5024912;28;20423;-93
2024/02/08 20:09:56;;;;;;;1.57;1.53;;;2.60;97.30;;;;;;5023468;28;20440;-92